createdAt,value
2023-03-03T00:01:58.389Z,1.40
2023-03-03T00:04:26.896Z,1.38
2023-03-03T00:06:57.888Z,1.27
2023-03-03T00:09:28.770Z,1.40
2023-03-03T00:12:01.435Z,1.33
2023-03-03T00:14:32.934Z,1.38
2023-03-03T00:17:17.715Z,1.40
2023-03-03T00:19:46.774Z,1.90
2023-03-03T00:22:29.476Z,1.42
2023-03-03T00:25:16.981Z,1.38
2023-03-03T00:27:46.734Z,1.52
2023-03-03T00:30:28.278Z,1.40
2023-03-03T00:32:58.822Z,1.27
2023-03-03T00:35:30.717Z,1.30
2023-03-03T00:38:02.577Z,2.17
2023-03-03T00:40:37.594Z,1.58
2023-03-03T00:43:35.628Z,1.50
2023-03-03T00:46:06.069Z,1.30
2023-03-03T00:48:37.465Z,1.63
2023-03-03T00:51:38.360Z,1.30
2023-03-03T00:54:06.106Z,1.30
2023-03-03T00:56:34.414Z,1.30
2023-03-03T00:59:01.367Z,1.25
2023-03-03T01:01:29.741Z,1.15
2023-03-03T01:03:58.717Z,1.40
2023-03-03T01:06:27.297Z,1.40
2023-03-03T01:08:58.187Z,1.30
2023-03-03T01:11:30.261Z,1.10
2023-03-03T01:14:02.229Z,1.40
2023-03-03T01:16:29.906Z,1.08
2023-03-03T01:18:57.815Z,1.23
2023-03-03T01:21:28.234Z,1.42
2023-03-03T01:23:56.081Z,1.88
2023-03-03T01:26:24.949Z,1.58
2023-03-03T01:28:56.116Z,1.20
2023-03-03T01:31:24.832Z,3.08
2023-03-03T01:33:54.295Z,1.30
2023-03-03T01:36:30.904Z,0.95
2023-03-03T01:38:59.602Z,1.48
2023-03-03T01:41:34.459Z,1.30
2023-03-03T01:44:03.324Z,1.38
2023-03-03T01:47:05.705Z,1.55
2023-03-03T01:50:07.673Z,1.65
2023-03-03T01:52:47.927Z,1.27
2023-03-03T01:55:22.028Z,1.27
2023-03-03T01:58:06.097Z,1.20
2023-03-03T02:00:38.384Z,1.10
2023-03-03T02:03:06.980Z,1.38
2023-03-03T02:05:40.960Z,1.25
2023-03-03T02:08:12.703Z,1.60
2023-03-03T02:10:42.650Z,1.20
2023-03-03T02:13:11.885Z,1.40
2023-03-03T02:15:39.797Z,1.33
2023-03-03T02:18:19.028Z,1.42
2023-03-03T02:21:05.647Z,1.45
2023-03-03T02:23:59.367Z,1.50
2023-03-03T02:26:31.036Z,1.45
2023-03-03T02:29:01.461Z,2.08
2023-03-03T02:31:32.941Z,1.35
2023-03-03T02:34:02.424Z,1.17
2023-03-03T02:36:31.918Z,1.30
2023-03-03T02:39:20.844Z,1.40
2023-03-03T02:42:14.712Z,1.30
2023-03-03T02:44:44.542Z,1.00
2023-03-03T02:47:12.024Z,1.30
2023-03-03T02:49:41.558Z,1.25
2023-03-03T02:52:15.521Z,1.50
2023-03-03T02:54:43.279Z,1.58
2023-03-03T02:57:11.760Z,1.40
2023-03-03T02:59:43.015Z,1.40
2023-03-03T03:02:11.987Z,1.33
2023-03-03T03:04:40.880Z,1.00
2023-03-03T03:07:08.874Z,1.23
2023-03-03T03:09:36.312Z,1.30
2023-03-03T03:12:05.852Z,1.25
2023-03-03T03:14:34.611Z,1.35
2023-03-03T03:17:02.654Z,1.35
2023-03-03T03:19:29.797Z,1.23
2023-03-03T03:21:58.069Z,1.30
2023-03-03T03:24:29.489Z,1.10
2023-03-03T03:26:59.376Z,1.25
2023-03-03T03:29:26.076Z,1.17
2023-03-03T03:31:53.959Z,1.27
2023-03-03T03:34:26.203Z,1.33
2023-03-03T03:36:53.563Z,1.20
2023-03-03T03:39:21.380Z,1.55
2023-03-03T03:41:51.972Z,1.38
2023-03-03T03:44:19.773Z,1.30
2023-03-03T03:46:50.060Z,1.23
2023-03-03T03:49:22.272Z,1.30
2023-03-03T03:51:50.737Z,1.38
2023-03-03T03:54:18.600Z,1.30
2023-03-03T03:56:46.588Z,1.30
2023-03-03T03:59:14.755Z,1.30
2023-03-03T04:01:44.859Z,1.30
2023-03-03T04:04:14.593Z,1.27
2023-03-03T04:06:43.122Z,1.40
2023-03-03T04:09:11.898Z,1.20
2023-03-03T04:11:39.416Z,1.17
2023-03-03T04:14:07.504Z,1.15
2023-03-03T04:16:36.993Z,1.20
2023-03-03T04:19:04.210Z,1.20
2023-03-03T04:21:31.456Z,1.20
2023-03-03T04:24:01.013Z,1.20
2023-03-03T04:26:31.472Z,1.38
2023-03-03T04:29:01.952Z,1.42
2023-03-03T04:31:31.628Z,1.88
2023-03-03T04:33:58.143Z,1.40
2023-03-03T04:36:28.394Z,1.55
2023-03-03T04:38:57.185Z,1.70
2023-03-03T04:41:25.600Z,1.40
2023-03-03T04:43:53.549Z,1.75
2023-03-03T04:46:20.562Z,1.40
2023-03-03T04:48:48.512Z,1.60
2023-03-03T04:51:18.027Z,1.70
2023-03-03T04:53:47.144Z,1.38
2023-03-03T04:56:15.430Z,1.42
2023-03-03T04:58:42.481Z,1.60
2023-03-03T05:01:14.273Z,1.40
2023-03-03T05:03:42.576Z,1.50
2023-03-03T05:06:09.686Z,1.45
2023-03-03T05:08:39.008Z,1.40
2023-03-03T05:11:07.183Z,1.65
2023-03-03T05:13:33.621Z,1.95
2023-03-03T05:16:00.914Z,1.40
2023-03-03T05:18:29.507Z,1.70
2023-03-03T05:20:56.239Z,1.38
2023-03-03T05:23:25.022Z,1.40
2023-03-03T05:25:54.157Z,1.55
2023-03-03T05:28:21.466Z,1.35
2023-03-03T05:30:49.334Z,1.38
2023-03-03T05:33:24.061Z,1.10
2023-03-03T05:35:59.247Z,1.27
2023-03-03T05:38:25.766Z,1.02
2023-03-03T05:40:53.013Z,0.93
2023-03-03T05:43:24.997Z,0.90
2023-03-03T05:45:56.910Z,1.05
2023-03-03T05:48:24.072Z,1.42
2023-03-03T05:50:51.068Z,1.20
2023-03-03T05:53:17.957Z,1.10
2023-03-03T05:55:45.587Z,1.02
2023-03-03T05:58:12.581Z,1.20
2023-03-03T06:00:39.359Z,2.28
2023-03-03T06:03:06.277Z,1.20
2023-03-03T06:05:32.781Z,1.50
2023-03-03T06:07:59.552Z,1.55
2023-03-03T06:10:26.360Z,2.63
2023-03-03T06:12:53.208Z,2.70
2023-03-03T06:15:20.369Z,2.38
2023-03-03T06:17:46.889Z,2.22
2023-03-03T06:20:13.901Z,2.00
2023-03-03T06:22:41.235Z,1.90
2023-03-03T06:25:09.444Z,1.60
2023-03-03T06:27:36.519Z,1.40
2023-03-03T06:30:03.911Z,1.60
2023-03-03T06:32:30.666Z,1.52
2023-03-03T06:34:57.187Z,1.33
2023-03-03T06:37:24.327Z,1.38
2023-03-03T06:39:52.180Z,1.17
2023-03-03T06:42:19.427Z,1.38
2023-03-03T06:44:46.908Z,1.58
2023-03-03T06:47:13.357Z,1.38
2023-03-03T06:49:40.219Z,1.88
2023-03-03T06:52:18.586Z,2.22
2023-03-03T06:54:44.985Z,2.28
2023-03-03T06:57:25.935Z,1.90
2023-03-03T06:59:56.713Z,1.83
2023-03-03T07:02:24.623Z,2.08
2023-03-03T07:04:53.237Z,1.73
2023-03-03T07:07:25.037Z,2.38
2023-03-03T07:09:56.970Z,2.35
2023-03-03T07:12:32.686Z,2.30
2023-03-03T07:15:16.308Z,1.77
2023-03-03T07:17:51.258Z,1.90
2023-03-03T07:20:23.978Z,1.70
2023-03-03T07:22:52.559Z,1.40
2023-03-03T07:25:32.577Z,1.40
2023-03-03T07:28:13.829Z,1.35
2023-03-03T07:30:42.045Z,1.40
2023-03-03T07:33:20.259Z,1.40
2023-03-03T07:35:48.018Z,1.30
2023-03-03T07:38:24.896Z,2.85
2023-03-03T07:40:55.078Z,1.45
2023-03-03T07:43:34.036Z,1.38
2023-03-03T07:46:15.867Z,1.38
2023-03-03T07:48:44.583Z,2.13
2023-03-03T07:51:39.305Z,1.70
2023-03-03T07:54:28.141Z,1.50
2023-03-03T07:57:23.479Z,1.92
2023-03-03T07:59:53.512Z,1.48
2023-03-03T08:02:40.083Z,1.40
2023-03-03T08:05:37.734Z,1.67
2023-03-03T08:08:31.572Z,2.30
2023-03-03T08:11:03.159Z,1.60
2023-03-03T08:13:33.130Z,2.72
2023-03-03T08:16:26.036Z,1.27
2023-03-03T08:19:03.464Z,3.20
2023-03-03T08:21:31.845Z,2.78
2023-03-03T08:23:59.718Z,1.63
2023-03-03T08:26:27.844Z,1.50
2023-03-03T08:28:55.140Z,1.98
2023-03-03T08:31:38.299Z,2.88
2023-03-03T08:34:07.165Z,1.58
2023-03-03T08:36:34.852Z,1.50
2023-03-03T08:39:04.234Z,1.70
2023-03-03T08:41:31.581Z,2.95
2023-03-03T08:43:58.852Z,1.65
2023-03-03T08:46:26.683Z,2.10
2023-03-03T08:48:53.539Z,1.60
2023-03-03T08:51:20.992Z,1.92
2023-03-03T08:53:49.661Z,2.53
2023-03-03T08:56:18.996Z,2.20
2023-03-03T08:59:03.822Z,2.20
2023-03-03T09:01:34.378Z,2.30
2023-03-03T09:04:01.703Z,2.17
2023-03-03T09:06:30.289Z,1.88
2023-03-03T09:08:58.410Z,2.97
2023-03-03T09:11:28.055Z,1.67
2023-03-03T09:14:21.838Z,2.05
2023-03-03T09:16:52.188Z,2.00
2023-03-03T09:19:31.579Z,1.70
2023-03-03T09:22:24.712Z,1.60
2023-03-03T09:24:57.240Z,1.67
2023-03-03T09:27:34.762Z,2.00
2023-03-03T09:30:16.937Z,2.00
2023-03-03T09:32:43.737Z,1.45
2023-03-03T09:35:31.902Z,1.88
2023-03-03T09:37:58.529Z,4.00
2023-03-03T09:40:43.613Z,1.75
2023-03-03T09:43:24.266Z,1.50
2023-03-03T09:46:35.465Z,2.92
2023-03-03T09:49:49.654Z,1.90
2023-03-03T09:52:33.056Z,2.40
2023-03-03T09:55:06.926Z,2.95
2023-03-03T09:57:46.485Z,1.63
2023-03-03T10:00:31.243Z,1.70
2023-03-03T10:03:06.735Z,1.67
2023-03-03T10:06:12.492Z,1.88
2023-03-03T10:08:58.675Z,2.03
2023-03-03T10:11:46.622Z,2.40
2023-03-03T10:14:42.338Z,2.03
2023-03-03T10:17:27.395Z,1.80
2023-03-03T10:20:16.488Z,2.50
2023-03-03T10:22:57.385Z,2.38
2023-03-03T10:25:44.565Z,2.55
2023-03-03T10:28:49.304Z,2.65
2023-03-03T10:31:38.691Z,2.42
2023-03-03T10:34:46.605Z,2.30
2023-03-03T10:37:21.528Z,2.58
2023-03-03T10:39:58.193Z,2.30
2023-03-03T10:42:51.729Z,4.00
2023-03-03T10:45:43.262Z,1.98
2023-03-03T10:48:41.081Z,3.22
2023-03-03T10:51:22.530Z,2.55
2023-03-03T10:54:15.963Z,2.25
2023-03-03T10:56:53.250Z,2.17
2023-03-03T10:59:42.890Z,4.45
2023-03-03T11:02:49.851Z,2.22
2023-03-03T11:05:33.101Z,2.53
2023-03-03T11:08:23.355Z,2.47
2023-03-03T11:11:24.062Z,3.55
2023-03-03T11:14:08.453Z,5.78
2023-03-03T11:17:09.374Z,2.83
2023-03-03T11:19:45.412Z,2.75
2023-03-03T11:22:34.507Z,2.20
2023-03-03T11:25:16.174Z,4.00
2023-03-03T11:28:27.803Z,2.33
2023-03-03T11:31:17.081Z,2.70
2023-03-03T11:34:13.599Z,2.92
2023-03-03T11:36:56.442Z,2.95
2023-03-03T11:39:27.822Z,5.25
2023-03-03T11:42:29.321Z,3.97
2023-03-03T11:45:34.659Z,2.95
2023-03-03T11:48:42.733Z,4.45
2023-03-03T11:51:42.279Z,4.22
2023-03-03T11:54:29.381Z,2.60
2023-03-03T11:57:13.829Z,4.88
2023-03-03T12:00:00.457Z,5.95
2023-03-03T12:03:13.547Z,4.43
2023-03-03T12:06:09.388Z,3.30
2023-03-03T12:09:15.915Z,3.78
2023-03-03T12:12:15.000Z,3.10
2023-03-03T12:15:17.549Z,3.40
2023-03-03T12:17:53.881Z,4.25
2023-03-03T12:20:50.203Z,2.83
2023-03-03T12:23:39.895Z,4.63
2023-03-03T12:26:33.560Z,3.13
2023-03-03T12:29:12.703Z,3.70
2023-03-03T12:32:23.962Z,2.65
2023-03-03T12:35:31.834Z,3.53
2023-03-03T12:38:28.415Z,3.15
2023-03-03T12:41:11.364Z,3.63
2023-03-03T12:44:00.180Z,5.20
2023-03-03T12:47:08.272Z,4.20
2023-03-03T12:50:13.395Z,6.05
2023-03-03T12:52:50.675Z,4.00
2023-03-03T12:55:29.402Z,4.60
2023-03-03T12:58:01.053Z,6.97
2023-03-03T13:01:03.347Z,3.38
2023-03-03T13:03:57.753Z,5.40
2023-03-03T13:06:52.819Z,4.32
2023-03-03T13:09:27.203Z,4.63
2023-03-03T13:12:26.563Z,3.72
2023-03-03T13:15:20.082Z,5.05
2023-03-03T13:18:17.752Z,4.00
2023-03-03T13:21:11.890Z,4.05
2023-03-03T13:24:02.786Z,5.15
2023-03-03T13:26:44.429Z,4.13
2023-03-03T13:29:20.602Z,3.05
2023-03-03T13:32:14.871Z,4.68
2023-03-03T13:35:11.758Z,4.72
2023-03-03T13:37:49.249Z,4.30
2023-03-03T13:40:27.360Z,3.55
2023-03-03T13:43:06.042Z,2.60
2023-03-03T13:46:32.532Z,4.55
2023-03-03T13:49:17.721Z,4.95
2023-03-03T13:52:03.026Z,3.08
2023-03-03T13:54:59.077Z,8.98
2023-03-03T13:57:38.448Z,2.88
2023-03-03T14:00:16.869Z,5.45
2023-03-03T14:03:12.320Z,4.57
2023-03-03T14:05:58.337Z,2.97
2023-03-03T14:08:38.831Z,3.67
2023-03-03T14:11:27.871Z,3.53
2023-03-03T14:14:18.231Z,2.58
2023-03-03T14:16:58.106Z,3.50
2023-03-03T14:19:49.800Z,2.55
2023-03-03T14:22:31.193Z,3.55
2023-03-03T14:25:10.169Z,4.90
2023-03-03T14:27:49.204Z,4.20
2023-03-03T14:30:22.690Z,3.63
2023-03-03T14:33:03.627Z,3.15
2023-03-03T14:35:37.977Z,3.92
2023-03-03T14:38:19.239Z,3.33
2023-03-03T14:40:50.205Z,2.42
2023-03-03T14:43:31.509Z,4.90
2023-03-03T14:46:37.333Z,3.20
2023-03-03T14:49:18.432Z,3.55
2023-03-03T14:51:55.031Z,3.17
2023-03-03T14:54:30.414Z,3.10
2023-03-03T14:57:07.890Z,2.80
2023-03-03T14:59:43.938Z,2.80
2023-03-03T15:02:17.838Z,2.67
2023-03-03T15:04:49.692Z,3.20
2023-03-03T15:07:37.148Z,2.33
2023-03-03T15:10:08.808Z,3.05
2023-03-03T15:12:41.319Z,3.30
2023-03-03T15:15:24.234Z,3.60
2023-03-03T15:18:07.650Z,2.38
2023-03-03T15:21:09.928Z,3.47
2023-03-03T15:23:37.748Z,2.42
2023-03-03T15:26:11.468Z,3.30
2023-03-03T15:29:01.372Z,2.40
2023-03-03T15:31:42.006Z,3.53
2023-03-03T15:34:29.438Z,2.22
2023-03-03T15:37:32.929Z,2.28
2023-03-03T15:40:23.754Z,2.13
2023-03-03T15:43:13.225Z,1.80
2023-03-03T15:46:27.737Z,2.63
2023-03-03T15:49:24.924Z,2.17
2023-03-03T15:52:17.756Z,2.45
2023-03-03T15:55:12.427Z,2.15
2023-03-03T15:58:18.403Z,2.53
2023-03-03T16:01:02.146Z,1.98
2023-03-03T16:03:39.748Z,2.28
2023-03-03T16:06:20.153Z,2.20
2023-03-03T16:09:07.074Z,2.15
2023-03-03T16:11:53.318Z,2.70
2023-03-03T16:14:38.320Z,2.15
2023-03-03T16:17:27.343Z,2.88
2023-03-03T16:20:13.918Z,1.30
2023-03-03T16:22:48.472Z,1.83
2023-03-03T16:25:50.123Z,1.58
2023-03-03T16:28:39.706Z,2.08
2023-03-03T16:31:20.989Z,1.20
2023-03-03T16:34:19.873Z,1.20
2023-03-03T16:37:31.839Z,1.35
2023-03-03T16:40:10.937Z,1.45
2023-03-03T16:42:40.567Z,1.25
2023-03-03T16:45:26.502Z,1.10
2023-03-03T16:48:23.973Z,1.10
2023-03-03T16:50:55.566Z,1.30
2023-03-03T16:53:48.740Z,1.00
2023-03-03T16:56:26.523Z,0.98
2023-03-03T16:59:12.967Z,1.08
2023-03-03T17:02:01.212Z,1.05
2023-03-03T17:05:02.893Z,1.02
2023-03-03T17:07:57.821Z,1.00
2023-03-03T17:10:29.337Z,0.90
2023-03-03T17:13:38.776Z,1.38
2023-03-03T17:16:51.097Z,1.08
2023-03-03T17:19:52.447Z,1.05
2023-03-03T17:22:40.215Z,1.20
2023-03-03T17:25:07.181Z,1.17
2023-03-03T17:27:51.993Z,1.15
2023-03-03T17:30:27.817Z,1.10
2023-03-03T17:33:06.552Z,1.00
2023-03-03T17:35:43.060Z,1.00
2023-03-03T17:38:22.684Z,1.52
2023-03-03T17:41:21.391Z,1.10
2023-03-03T17:43:58.402Z,1.13
2023-03-03T17:46:57.830Z,0.80
2023-03-03T17:49:54.143Z,0.82
2023-03-03T17:52:56.355Z,0.98
2023-03-03T17:55:26.869Z,0.90
2023-03-03T17:58:16.540Z,0.80
2023-03-03T18:01:03.977Z,1.20
2023-03-03T18:03:33.739Z,1.13
2023-03-03T18:06:11.664Z,0.70
2023-03-03T18:09:14.439Z,0.73
2023-03-03T18:12:23.160Z,0.68
2023-03-03T18:15:03.390Z,1.48
2023-03-03T18:18:09.661Z,1.00
2023-03-03T18:21:13.561Z,0.80
2023-03-03T18:23:45.633Z,0.60
2023-03-03T18:26:39.895Z,0.70
2023-03-03T18:29:11.466Z,0.50
2023-03-03T18:31:52.956Z,0.60
2023-03-03T18:34:21.788Z,0.60
2023-03-03T18:36:53.725Z,0.75
2023-03-03T18:39:47.520Z,0.75
2023-03-03T18:42:18.196Z,1.23
2023-03-03T18:44:49.766Z,0.60
2023-03-03T18:47:21.424Z,0.80
2023-03-03T18:50:20.322Z,0.65
2023-03-03T18:53:09.304Z,0.70
2023-03-03T18:55:50.626Z,0.80
2023-03-03T18:58:17.752Z,1.05
2023-03-03T19:00:54.682Z,0.80
2023-03-03T19:03:54.560Z,0.82
2023-03-03T19:06:38.533Z,0.70
2023-03-03T19:09:09.229Z,0.68
2023-03-03T19:11:42.454Z,0.70
2023-03-03T19:14:31.317Z,0.70
2023-03-03T19:17:24.462Z,0.90
2023-03-03T19:20:15.138Z,0.70
2023-03-03T19:23:07.576Z,1.00
2023-03-03T19:25:34.260Z,1.02
2023-03-03T19:28:09.468Z,1.05
2023-03-03T19:30:56.457Z,0.80
2023-03-03T19:34:01.690Z,0.70
2023-03-03T19:36:59.980Z,0.80
2023-03-03T19:40:08.483Z,0.80
2023-03-03T19:43:02.034Z,1.20
2023-03-03T19:45:38.736Z,1.45
2023-03-03T19:48:33.159Z,1.10
2023-03-03T19:51:08.860Z,0.70
2023-03-03T19:54:02.203Z,0.90
2023-03-03T19:56:48.618Z,1.00
2023-03-03T19:59:48.629Z,1.33
2023-03-03T20:02:38.412Z,0.80
2023-03-03T20:05:39.840Z,0.93
2023-03-03T20:08:15.874Z,0.93
2023-03-03T20:11:13.385Z,1.40
2023-03-03T20:14:14.222Z,1.25
2023-03-03T20:16:42.833Z,1.30
2023-03-03T20:19:29.521Z,1.10
2023-03-03T20:22:05.200Z,0.82
2023-03-03T20:25:02.037Z,0.90
2023-03-03T20:27:47.505Z,0.90
2023-03-03T20:30:40.786Z,1.05
2023-03-03T20:33:34.300Z,0.90
2023-03-03T20:36:36.809Z,1.52
2023-03-03T20:39:11.263Z,0.85
2023-03-03T20:42:17.840Z,1.20
2023-03-03T20:45:27.242Z,1.38
2023-03-03T20:48:13.320Z,1.42
2023-03-03T20:50:53.516Z,0.82
2023-03-03T20:53:40.312Z,1.73
2023-03-03T20:56:27.041Z,0.98
2023-03-03T20:59:13.368Z,1.10
2023-03-03T21:02:07.566Z,1.00
2023-03-03T21:04:35.587Z,1.20
2023-03-03T21:07:09.205Z,1.13
2023-03-03T21:09:42.060Z,0.90
2023-03-03T21:12:30.794Z,1.30
2023-03-03T21:15:08.392Z,1.17
2023-03-03T21:17:38.014Z,1.10
2023-03-03T21:20:31.061Z,1.08
2023-03-03T21:23:13.134Z,1.88
2023-03-03T21:26:06.537Z,1.10
2023-03-03T21:28:39.213Z,0.93
2023-03-03T21:31:25.456Z,1.13
2023-03-03T21:34:20.154Z,1.25
2023-03-03T21:37:00.181Z,1.10
2023-03-03T21:39:37.835Z,1.13
2023-03-03T21:42:25.200Z,1.10
2023-03-03T21:45:12.951Z,1.20
2023-03-03T21:47:43.333Z,1.00
2023-03-03T21:50:16.524Z,1.40
2023-03-03T21:52:48.626Z,1.30
2023-03-03T21:55:18.480Z,1.55
2023-03-03T21:57:47.449Z,1.00
2023-03-03T22:00:28.325Z,1.30
2023-03-03T22:02:56.899Z,1.10
2023-03-03T22:05:31.240Z,1.23
2023-03-03T22:08:19.954Z,0.98
2023-03-03T22:10:55.926Z,1.00
2023-03-03T22:13:32.301Z,1.08
2023-03-03T22:15:59.651Z,1.40
2023-03-03T22:18:31.964Z,1.33
2023-03-03T22:21:11.765Z,1.02
2023-03-03T22:23:46.770Z,1.15
2023-03-03T22:26:37.136Z,1.40
2023-03-03T22:29:31.488Z,1.08
2023-03-03T22:32:02.688Z,1.17
2023-03-03T22:34:38.439Z,1.73
2023-03-03T22:37:17.849Z,2.63
2023-03-03T22:39:50.107Z,1.15
2023-03-03T22:42:23.870Z,1.10
2023-03-03T22:45:08.806Z,1.08
2023-03-03T22:47:38.634Z,1.23
2023-03-03T22:50:13.955Z,2.20
2023-03-03T22:52:50.249Z,0.90
2023-03-03T22:55:24.514Z,0.75
2023-03-03T22:58:05.695Z,1.15
2023-03-03T23:00:45.596Z,0.90
2023-03-03T23:03:14.825Z,1.30
2023-03-03T23:05:46.102Z,0.90
2023-03-03T23:08:26.180Z,1.05
2023-03-03T23:11:03.793Z,1.10
2023-03-03T23:13:35.285Z,1.10
2023-03-03T23:16:07.567Z,1.27
2023-03-03T23:18:38.687Z,0.93
2023-03-03T23:21:12.994Z,1.00
2023-03-03T23:23:39.882Z,1.10
2023-03-03T23:26:10.581Z,1.20
2023-03-03T23:28:46.852Z,1.27
2023-03-03T23:31:16.456Z,1.50
2023-03-03T23:33:44.960Z,1.10
2023-03-03T23:36:27.024Z,1.35
2023-03-03T23:38:58.634Z,0.93
2023-03-03T23:41:27.122Z,0.88
2023-03-03T23:43:55.818Z,1.20
2023-03-03T23:46:26.306Z,1.23
2023-03-03T23:48:57.747Z,1.00
2023-03-03T23:51:26.866Z,0.88
2023-03-03T23:54:00.434Z,1.10
2023-03-03T23:56:30.932Z,0.80
2023-03-03T23:59:00.530Z,1.15
